Gretna, Missouri
Current Conditions -  °F | °C
As of 7:55 AM on Monday 24 Nov 2014 (Local Time) from KFWB Reporting Station
Few Clouds Few Clouds  
Wind Chill: 30°   Ceiling: Unl
Heat Index: 37°   Visibility: 10mi
Dew Point: 30°   Wind: 12mph
Humidity: 75%   Direction: 260°W
Pressure: 29.78"   Gusts: NA
Location:  36.6858°N, 93.2638°W
Report Text: KFWB 241355Z AUTO 26010KT 10SM FEW013 03/M01 A2978 RMK AO2
Loading
Personal Weather Stations






























Interactive Weather Map New forecast layout! Learn more

10-Day Weather Forecast

Advertisements
Track Severe Weather on mobile